Time;durP1;ratioP1;P1;durP2;ratioP2;P2;SDS_P1;SDS_P2;PMS_P1;PMS_P2;Temp;Humidity;BMP_temperature;BMP_pressure;BME280_temperature;BME280_humidity;BME280_pressure;Samples;Min_cycle;Max_cycle;Signal;HPM_P1;HPM_P2
2023/12/12 00:01:49;;;;;;;4.10;0.90;;;;;;;;;;5021645;28;20069;-71
2023/12/12 00:04:15;;;;;;;0.88;0.43;;;;;;;;;;5011609;28;20092;-72
2023/12/12 00:06:42;;;;;;;3.20;0.82;;;;;;;;;;5011343;28;20397;-72
2023/12/12 00:09:08;;;;;;;2.75;0.93;;;;;;;;;;5011531;28;20056;-72
2023/12/12 00:11:33;;;;;;;4.63;0.80;;;;;;;;;;5011308;28;20413;-73
2023/12/12 00:13:59;;;;;;;2.47;0.80;;;;;;;;;;5027384;28;20034;-73
2023/12/12 00:16:24;;;;;;;3.58;0.88;;;;;;;;;;5031638;28;20472;-75
2023/12/12 00:18:50;;;;;;;6.43;0.90;;;;;;;;;;5033839;28;20099;-73
2023/12/12 00:21:16;;;;;;;2.50;0.50;;;;;;;;;;5031893;28;20032;-72
2023/12/12 00:23:41;;;;;;;5.57;1.02;;;;;;;;;;5031583;28;20152;-73
2023/12/12 00:26:07;;;;;;;1.45;0.90;;;;;;;;;;5013274;28;20032;-72
2023/12/12 00:28:35;;;;;;;1.33;1.00;;;;;;;;;;5010615;28;20025;-72
2023/12/12 00:31:01;;;;;;;4.60;0.85;;;;;;;;;;5010646;28;20025;-72
2023/12/12 00:33:28;;;;;;;4.78;0.73;;;;;;;;;;5012070;28;20029;-72
2023/12/12 00:35:53;;;;;;;4.57;0.77;;;;;;;;;;5011794;28;20034;-72
2023/12/12 00:38:19;;;;;;;2.45;0.90;;;;;;;;;;5030551;28;20108;-72
2023/12/12 00:40:52;;;;;;;3.10;1.05;;;;;;;;;;5030465;28;20112;-72
2023/12/12 00:43:17;;;;;;;3.30;0.75;;;;;;;;;;5031773;28;20072;-73
2023/12/12 00:45:43;;;;;;;2.90;1.02;;;;;;;;;;5030767;28;20055;-72
2023/12/12 00:48:08;;;;;;;1.55;0.75;;;;;;;;;;5031384;28;20076;-72
2023/12/12 00:50:34;;;;;;;2.03;1.08;;;;;;;;;;5030211;28;20021;-72
2023/12/12 00:52:59;;;;;;;3.17;1.10;;;;;;;;;;5030207;28;20048;-72
2023/12/12 00:55:25;;;;;;;1.98;0.70;;;;;;;;;;5031589;28;20508;-69
2023/12/12 00:57:50;;;;;;;2.55;0.60;;;;;;;;;;5031037;28;20059;-73
2023/12/12 01:00:17;;;;;;;8.48;1.10;;;;;;;;;;5027938;28;20391;-72
2023/12/12 01:02:42;;;;;;;3.05;1.00;;;;;;;;;;5027910;28;20108;-71
2023/12/12 01:05:08;;;;;;;1.90;0.80;;;;;;;;;;5030660;28;20124;-72
2023/12/12 01:07:33;;;;;;;0.60;0.60;;;;;;;;;;5035502;28;20089;-73
2023/12/12 01:09:59;;;;;;;4.85;0.85;;;;;;;;;;5033977;28;20112;-72
2023/12/12 01:12:25;;;;;;;2.67;0.90;;;;;;;;;;5028748;28;20022;-72
2023/12/12 01:14:50;;;;;;;2.30;1.00;;;;;;;;;;5011639;28;20115;-73
2023/12/12 01:17:16;;;;;;;2.50;1.10;;;;;;;;;;5010372;28;20041;-73
2023/12/12 01:19:41;;;;;;;4.15;0.88;;;;;;;;;;5010178;28;20154;-73
2023/12/12 01:22:07;;;;;;;1.83;1.05;;;;;;;;;;5010688;28;20030;-73
2023/12/12 01:24:34;;;;;;;1.85;0.80;;;;;;;;;;5012249;28;20409;-74
2023/12/12 01:27:00;;;;;;;1.55;0.90;;;;;;;;;;5029952;28;20030;-73
2023/12/12 01:29:27;;;;;;;1.98;1.00;;;;;;;;;;5029426;28;20026;-73
2023/12/12 01:31:52;;;;;;;4.47;1.00;;;;;;;;;;5029757;28;20049;-73
2023/12/12 01:34:19;;;;;;;2.53;0.90;;;;;;;;;;5031359;28;20126;-71
2023/12/12 01:36:45;;;;;;;2.92;0.80;;;;;;;;;;5025606;28;20021;-72
2023/12/12 01:39:11;;;;;;;1.90;1.20;;;;;;;;;;5010994;28;20053;-72
2023/12/12 01:41:36;;;;;;;2.78;1.00;;;;;;;;;;5009278;28;20052;-72
2023/12/12 01:44:02;;;;;;;3.60;1.00;;;;;;;;;;5009368;28;20079;-74
2023/12/12 01:46:28;;;;;;;1.45;0.85;;;;;;;;;;5009874;28;20065;-72
2023/12/12 01:48:54;;;;;;;5.07;2.17;;;;;;;;;;5012636;28;20025;-75
2023/12/12 01:51:20;;;;;;;0.95;0.80;;;;;;;;;;5028811;28;20029;-75
2023/12/12 01:53:47;;;;;;;2.08;0.98;;;;;;;;;;5029085;28;20033;-72
2023/12/12 01:56:14;;;;;;;3.28;1.00;;;;;;;;;;5029881;28;20029;-72
2023/12/12 01:58:44;;;;;;;5.95;1.00;;;;;;;;;;5028833;28;20021;-74
2023/12/12 02:01:10;;;;;;;3.90;1.42;;;;;;;;;;5023399;28;20018;-71
2023/12/12 02:03:37;;;;;;;1.48;0.90;;;;;;;;;;5009110;28;20033;-72
2023/12/12 02:06:05;;;;;;;3.35;0.90;;;;;;;;;;5009312;28;20057;-72
2023/12/12 02:08:30;;;;;;;2.47;1.00;;;;;;;;;;5009361;28;20112;-72
2023/12/12 02:10:56;;;;;;;2.30;0.95;;;;;;;;;;5009021;28;20215;-72
2023/12/12 02:13:22;;;;;;;3.90;1.48;;;;;;;;;;5013877;28;20184;-73
2023/12/12 02:15:48;;;;;;;2.97;0.80;;;;;;;;;;5029111;28;20385;-73
2023/12/12 02:18:16;;;;;;;3.67;1.10;;;;;;;;;;5029772;28;20436;-72
2023/12/12 02:20:43;;;;;;;3.60;0.93;;;;;;;;;;5029651;28;20412;-72
2023/12/12 02:23:09;;;;;;;5.78;1.05;;;;;;;;;;5028735;28;20029;-73
2023/12/12 02:25:36;;;;;;;5.63;1.23;;;;;;;;;;5024690;28;20033;-70
2023/12/12 02:28:02;;;;;;;3.72;0.95;;;;;;;;;;5012000;28;20113;-73
2023/12/12 02:30:29;;;;;;;4.03;0.90;;;;;;;;;;5010433;28;20080;-72
2023/12/12 02:32:58;;;;;;;4.10;0.80;;;;;;;;;;5010347;28;20037;-72
2023/12/12 02:35:23;;;;;;;5.65;1.30;;;;;;;;;;5010205;28;20385;-72
2023/12/12 02:37:49;;;;;;;4.65;1.27;;;;;;;;;;5016464;28;20674;-71
2023/12/12 02:40:15;;;;;;;5.57;1.48;;;;;;;;;;5029075;28;20032;-72
2023/12/12 02:42:48;;;;;;;4.03;0.98;;;;;;;;;;5028962;28;20060;-72
2023/12/12 02:45:14;;;;;;;3.58;1.20;;;;;;;;;;5029449;28;20052;-72
2023/12/12 02:47:40;;;;;;;3.38;1.17;;;;;;;;;;5030619;28;20068;-73
2023/12/12 02:50:06;;;;;;;4.55;1.40;;;;;;;;;;5029772;28;20106;-71
2023/12/12 02:52:31;;;;;;;4.50;1.15;;;;;;;;;;5028790;28;20031;-71
2023/12/12 02:54:57;;;;;;;2.78;1.27;;;;;;;;;;5029920;28;20088;-72
2023/12/12 02:57:23;;;;;;;5.60;1.48;;;;;;;;;;5029653;28;20108;-73
2023/12/12 02:59:49;;;;;;;4.38;1.17;;;;;;;;;;5029672;28;20026;-72
2023/12/12 03:02:15;;;;;;;5.68;2.28;;;;;;;;;;5017148;28;20033;-72
2023/12/12 03:04:45;;;;;;;1.45;1.10;;;;;;;;;;5008365;28;20037;-72
2023/12/12 03:07:11;;;;;;;4.15;1.25;;;;;;;;;;5010405;28;20037;-72
2023/12/12 03:09:37;;;;;;;7.50;1.48;;;;;;;;;;5010995;28;20105;-72
2023/12/12 03:12:03;;;;;;;7.68;1.40;;;;;;;;;;5009235;28;20426;-72
2023/12/12 03:14:29;;;;;;;5.97;1.23;;;;;;;;;;5017292;28;20030;-72
2023/12/12 03:16:58;;;;;;;11.38;1.60;;;;;;;;;;5031235;28;20083;-73
2023/12/12 03:19:24;;;;;;;3.20;1.08;;;;;;;;;;5030089;28;20071;-72
2023/12/12 03:21:50;;;;;;;2.53;0.88;;;;;;;;;;5029137;28;20029;-72
2023/12/12 03:24:16;;;;;;;2.90;0.90;;;;;;;;;;5030277;28;20017;-73
2023/12/12 03:26:45;;;;;;;3.95;1.02;;;;;;;;;;5020129;28;20040;-73
2023/12/12 03:29:11;;;;;;;2.10;1.00;;;;;;;;;;5017474;28;20025;-71
2023/12/12 03:31:36;;;;;;;5.72;2.05;;;;;;;;;;5032342;28;20060;-73
2023/12/12 03:34:02;;;;;;;5.57;1.40;;;;;;;;;;5032418;28;20121;-71
2023/12/12 03:36:28;;;;;;;6.03;1.08;;;;;;;;;;5033869;28;20079;-71
2023/12/12 03:38:53;;;;;;;2.50;1.10;;;;;;;;;;5032915;28;20430;-73
2023/12/12 03:41:19;;;;;;;3.25;1.13;;;;;;;;;;5032633;28;20079;-73
2023/12/12 03:43:45;;;;;;;4.75;1.50;;;;;;;;;;5033072;28;20045;-73
2023/12/12 03:46:15;;;;;;;6.60;1.40;;;;;;;;;;5032197;28;20065;-72
2023/12/12 03:48:40;;;;;;;5.78;1.25;;;;;;;;;;5031607;28;20133;-72
2023/12/12 03:51:12;;;;;;;3.30;1.20;;;;;;;;;;5031231;28;20116;-71
2023/12/12 03:53:41;;;;;;;6.28;1.55;;;;;;;;;;5011950;28;20029;-71
2023/12/12 03:56:07;;;;;;;3.22;1.05;;;;;;;;;;5012055;28;20060;-73
2023/12/12 03:58:33;;;;;;;5.88;1.50;;;;;;;;;;5012154;28;20486;-71
2023/12/12 04:00:58;;;;;;;2.92;1.05;;;;;;;;;;5012866;28;20113;-72
2023/12/12 04:03:26;;;;;;;6.80;1.40;;;;;;;;;;5033074;28;20468;-73
2023/12/12 04:05:51;;;;;;;4.47;1.30;;;;;;;;;;5031615;28;20079;-69
2023/12/12 04:08:17;;;;;;;4.78;1.00;;;;;;;;;;5031676;28;20029;-74
2023/12/12 04:10:43;;;;;;;3.15;1.48;;;;;;;;;;5031784;28;20093;-72
2023/12/12 04:13:09;;;;;;;4.18;1.40;;;;;;;;;;5031779;28;20055;-71
2023/12/12 04:15:35;;;;;;;6.47;1.33;;;;;;;;;;5012660;28;20034;-72
2023/12/12 04:18:00;;;;;;;8.35;1.50;;;;;;;;;;5013777;28;20044;-74
2023/12/12 04:20:27;;;;;;;5.82;1.75;;;;;;;;;;5012981;28;20030;-72
2023/12/12 04:22:53;;;;;;;3.85;1.60;;;;;;;;;;5011473;28;20112;-72
2023/12/12 04:25:23;;;;;;;4.95;1.20;;;;;;;;;;5013384;28;20104;-72
2023/12/12 04:27:49;;;;;;;3.58;1.40;;;;;;;;;;5012242;28;20341;-72
2023/12/12 04:30:14;;;;;;;5.80;1.38;;;;;;;;;;5011056;28;20056;-72
2023/12/12 04:32:40;;;;;;;4.38;1.30;;;;;;;;;;5011790;28;20025;-72
2023/12/12 04:35:08;;;;;;;4.18;1.48;;;;;;;;;;5012344;28;20030;-72
2023/12/12 04:37:34;;;;;;;3.72;1.15;;;;;;;;;;5011624;28;20029;-71
2023/12/12 04:40:00;;;;;;;1.90;0.93;;;;;;;;;;5029668;28;20022;-71
2023/12/12 04:42:25;;;;;;;5.10;1.30;;;;;;;;;;5030577;28;20021;-74
2023/12/12 04:44:51;;;;;;;4.07;1.15;;;;;;;;;;5031980;28;20485;-74
2023/12/12 04:47:16;;;;;;;1.60;0.95;;;;;;;;;;5032064;28;20113;-73
2023/12/12 04:49:42;;;;;;;10.18;1.52;;;;;;;;;;5031482;28;20046;-71
2023/12/12 04:52:08;;;;;;;3.38;1.10;;;;;;;;;;5031622;28;20025;-72
2023/12/12 04:54:33;;;;;;;5.45;1.40;;;;;;;;;;5030213;28;20104;-72
2023/12/12 04:56:59;;;;;;;3.45;1.20;;;;;;;;;;5032434;28;20126;-72
2023/12/12 04:59:25;;;;;;;6.25;1.52;;;;;;;;;;5030582;28;20025;-73
2023/12/12 05:01:51;;;;;;;11.07;1.52;;;;;;;;;;5031867;28;20040;-73
2023/12/12 05:04:16;;;;;;;3.28;1.23;;;;;;;;;;5031801;28;20030;-72
2023/12/12 05:06:42;;;;;;;4.05;1.38;;;;;;;;;;5030892;28;20026;-75
2023/12/12 05:09:07;;;;;;;6.68;1.20;;;;;;;;;;5030430;28;20078;-74
2023/12/12 05:11:33;;;;;;;8.85;1.65;;;;;;;;;;5032000;28;20484;-73
2023/12/12 05:13:59;;;;;;;5.95;1.60;;;;;;;;;;5031922;28;20393;-71
2023/12/12 05:16:25;;;;;;;9.55;1.75;;;;;;;;;;5034357;28;20100;-74
2023/12/12 05:18:52;;;;;;;4.63;1.55;;;;;;;;;;5034797;28;20547;-73
2023/12/12 05:21:21;;;;;;;5.47;1.33;;;;;;;;;;5034709;28;20028;-74
2023/12/12 05:23:50;;;;;;;11.40;2.50;;;;;;;;;;5033910;28;20020;-71
2023/12/12 05:26:18;;;;;;;4.47;1.52;;;;;;;;;;5024067;28;20057;-73
2023/12/12 05:28:44;;;;;;;4.72;1.60;;;;;;;;;;5023344;28;20584;-72
2023/12/12 05:31:10;;;;;;;3.60;1.20;;;;;;;;;;5029863;28;20048;-73
2023/12/12 05:33:35;;;;;;;8.05;1.67;;;;;;;;;;5029679;28;20087;-73
2023/12/12 05:36:01;;;;;;;7.72;1.25;;;;;;;;;;5029639;28;20134;-74
2023/12/12 05:38:26;;;;;;;3.70;1.48;;;;;;;;;;5021031;28;20026;-72
2023/12/12 05:40:52;;;;;;;6.55;1.73;;;;;;;;;;5011099;28;20032;-73
2023/12/12 05:43:17;;;;;;;8.30;1.60;;;;;;;;;;5012373;28;20539;-72
2023/12/12 05:45:43;;;;;;;4.47;1.95;;;;;;;;;;5010654;28;20637;-73
2023/12/12 05:48:09;;;;;;;4.22;1.35;;;;;;;;;;5009614;28;20493;-71
2023/12/12 05:50:34;;;;;;;4.78;1.70;;;;;;;;;;5015881;28;20658;-73
2023/12/12 05:53:00;;;;;;;8.40;2.10;;;;;;;;;;5030691;28;20540;-74
2023/12/12 05:55:28;;;;;;;6.57;1.90;;;;;;;;;;5030686;28;20083;-72
2023/12/12 05:57:53;;;;;;;7.40;1.83;;;;;;;;;;5030797;28;20131;-74
2023/12/12 06:00:19;;;;;;;6.72;1.92;;;;;;;;;;5030801;28;20104;-74
2023/12/12 06:02:45;;;;;;;4.60;1.70;;;;;;;;;;5013131;28;20486;-73
2023/12/12 06:05:10;;;;;;;6.93;1.95;;;;;;;;;;5009433;28;20394;-74
2023/12/12 06:07:37;;;;;;;3.20;1.48;;;;;;;;;;5009639;28;20044;-73
2023/12/12 06:10:08;;;;;;;4.63;1.65;;;;;;;;;;5009079;28;20033;-74
2023/12/12 06:12:34;;;;;;;8.07;1.52;;;;;;;;;;5009634;28;20481;-73
2023/12/12 06:15:00;;;;;;;5.07;1.35;;;;;;;;;;5008744;28;20037;-74
2023/12/12 06:17:26;;;;;;;3.28;1.42;;;;;;;;;;5012396;28;20127;-74
2023/12/12 06:19:52;;;;;;;8.15;3.00;;;;;;;;;;5015101;28;20029;-74
2023/12/12 06:22:17;;;;;;;6.85;1.83;;;;;;;;;;5028356;28;20025;-72
2023/12/12 06:24:43;;;;;;;10.10;2.55;;;;;;;;;;5022177;28;20021;-72
2023/12/12 06:27:08;;;;;;;5.60;1.88;;;;;;;;;;5018111;28;20068;-72
2023/12/12 06:29:34;;;;;;;3.87;1.77;;;;;;;;;;5023300;28;20021;-72
2023/12/12 06:32:00;;;;;;;6.53;1.92;;;;;;;;;;5028612;28;20359;-73
2023/12/12 06:34:25;;;;;;;8.45;2.13;;;;;;;;;;5026569;28;20031;-75
2023/12/12 06:36:51;;;;;;;7.90;2.08;;;;;;;;;;5027367;28;20364;-73
2023/12/12 06:39:16;;;;;;;7.05;2.53;;;;;;;;;;5017630;28;20116;-72
2023/12/12 06:41:42;;;;;;;10.23;2.88;;;;;;;;;;5029484;28;20501;-72
2023/12/12 06:44:08;;;;;;;12.95;2.53;;;;;;;;;;5023705;28;20055;-72
2023/12/12 06:46:36;;;;;;;2.50;1.55;;;;;;;;;;5028761;28;20021;-72
2023/12/12 06:49:03;;;;;;;6.13;1.90;;;;;;;;;;5028072;28;20105;-74
2023/12/12 06:51:28;;;;;;;7.13;1.70;;;;;;;;;;5021917;28;20030;-73
2023/12/12 06:53:57;;;;;;;6.10;2.22;;;;;;;;;;5019075;28;20279;-71
2023/12/12 06:56:41;;;;;;;8.57;1.93;;;;;;;;;;5030467;28;20064;-72
2023/12/12 06:59:09;;;;;;;2.78;1.95;;;;;;;;;;5028204;28;20174;-73
2023/12/12 07:01:36;;;;;;;6.57;2.15;;;;;;;;;;5027420;28;20718;-73
2023/12/12 07:04:02;;;;;;;6.30;1.73;;;;;;;;;;5034080;28;20056;-73
2023/12/12 07:06:27;;;;;;;4.82;1.63;;;;;;;;;;5032769;28;20519;-75
2023/12/12 07:08:53;;;;;;;13.33;2.30;;;;;;;;;;5028611;28;20035;-75
2023/12/12 07:11:19;;;;;;;7.23;1.80;;;;;;;;;;5029352;28;20029;-75
2023/12/12 07:13:44;;;;;;;15.27;5.95;;;;;;;;;;5021293;28;20057;-73
2023/12/12 07:16:11;;;;;;;5.65;2.28;;;;;;;;;;5033246;28;20021;-75
2023/12/12 07:18:40;;;;;;;7.65;2.38;;;;;;;;;;5034896;28;20465;-73
2023/12/12 07:21:06;;;;;;;7.80;2.50;;;;;;;;;;5018663;28;20078;-77
2023/12/12 07:23:33;;;;;;;7.28;2.47;;;;;;;;;;5029745;28;20034;-71
2023/12/12 07:25:59;;;;;;;11.50;2.22;;;;;;;;;;5019333;28;20061;-71
2023/12/12 07:28:27;;;;;;;8.45;2.10;;;;;;;;;;5034045;28;20029;-72
2023/12/12 07:30:53;;;;;;;7.53;2.93;;;;;;;;;;5030076;28;20520;-73
2023/12/12 07:33:19;;;;;;;6.37;1.83;;;;;;;;;;5039972;28;20070;-70
2023/12/12 07:35:46;;;;;;;13.57;2.13;;;;;;;;;;5037557;28;20048;-75
2023/12/12 07:38:12;;;;;;;5.72;1.90;;;;;;;;;;5027266;28;20029;-72
2023/12/12 07:40:38;;;;;;;11.20;2.55;;;;;;;;;;5031997;28;20699;-74
2023/12/12 07:43:03;;;;;;;4.55;2.08;;;;;;;;;;5034818;28;20167;-74
2023/12/12 07:45:29;;;;;;;5.82;2.00;;;;;;;;;;5030252;28;20035;-74
2023/12/12 07:47:54;;;;;;;11.52;2.55;;;;;;;;;;5034628;28;20037;-76
2023/12/12 07:50:22;;;;;;;11.20;2.15;;;;;;;;;;5055335;28;20025;-73
2023/12/12 07:52:49;;;;;;;7.47;1.50;;;;;;;;;;5034700;28;20035;-74
2023/12/12 07:55:15;;;;;;;6.90;1.98;;;;;;;;;;5027059;28;20025;-73
2023/12/12 07:57:42;;;;;;;14.95;3.17;;;;;;;;;;5035524;28;20057;-74
2023/12/12 08:00:10;;;;;;;6.72;1.92;;;;;;;;;;5029224;28;20029;-73
2023/12/12 08:02:36;;;;;;;8.77;2.57;;;;;;;;;;5026563;28;20021;-76
2023/12/12 08:05:06;;;;;;;6.13;3.00;;;;;;;;;;5026043;28;20076;-74
2023/12/12 08:07:32;;;;;;;5.53;2.67;;;;;;;;;;5018149;28;20029;-75
2023/12/12 08:09:58;;;;;;;8.55;2.03;;;;;;;;;;5025229;28;20050;-73
2023/12/12 08:12:30;;;;;;;12.13;2.45;;;;;;;;;;5009601;28;20083;-73
2023/12/12 08:14:56;;;;;;;10.45;3.08;;;;;;;;;;5014788;28;20120;-75
2023/12/12 08:17:22;;;;;;;9.70;2.42;;;;;;;;;;5014114;28;20124;-73
2023/12/12 08:19:56;;;;;;;8.95;2.40;;;;;;;;;;5022414;28;20060;-77
2023/12/12 08:22:22;;;;;;;8.98;1.67;;;;;;;;;;5018406;28;20028;-75
2023/12/12 08:24:50;;;;;;;8.57;2.70;;;;;;;;;;5029216;28;20053;-75
2023/12/12 08:27:20;;;;;;;8.10;2.33;;;;;;;;;;5023684;28;20032;-76
2023/12/12 08:29:49;;;;;;;5.17;2.07;;;;;;;;;;5017556;28;20113;-76
2023/12/12 08:32:16;;;;;;;7.75;2.53;;;;;;;;;;5024228;28;20464;-73
2023/12/12 08:34:43;;;;;;;10.37;2.63;;;;;;;;;;5021019;28;20075;-74
2023/12/12 08:37:09;;;;;;;10.27;2.30;;;;;;;;;;5004229;28;20037;-77
2023/12/12 08:39:36;;;;;;;10.27;2.33;;;;;;;;;;5023932;28;20120;-73
2023/12/12 08:42:02;;;;;;;12.63;2.60;;;;;;;;;;5030284;28;20121;-74
2023/12/12 08:44:28;;;;;;;8.40;2.10;;;;;;;;;;5015202;28;20034;-77
2023/12/12 08:46:54;;;;;;;15.50;2.93;;;;;;;;;;5021204;28;20026;-74
2023/12/12 08:49:20;;;;;;;8.25;2.28;;;;;;;;;;5023861;28;20029;-72
2023/12/12 08:51:47;;;;;;;12.88;2.95;;;;;;;;;;5017034;28;20037;-74
2023/12/12 08:54:16;;;;;;;16.65;2.78;;;;;;;;;;5022993;28;20115;-74
2023/12/12 08:56:45;;;;;;;5.90;1.77;;;;;;;;;;5026748;28;20166;-75
2023/12/12 08:59:11;;;;;;;7.47;1.55;;;;;;;;;;5015643;28;20055;-74
2023/12/12 09:01:43;;;;;;;9.43;1.63;;;;;;;;;;5022187;28;20500;-75
2023/12/12 09:04:13;;;;;;;;;;;;;;;;;;5022499;28;20030;-75
2023/12/12 09:06:41;;;;;;;17.20;5.65;;;;;;;;;;5020763;28;19924;-76
2023/12/12 09:09:07;;;;;;;5.13;2.10;;;;;;;;;;5021481;28;20024;-75
2023/12/12 09:11:35;;;;;;;10.13;2.20;;;;;;;;;;5019519;28;20059;-76
2023/12/12 09:14:03;;;;;;;9.40;2.60;;;;;;;;;;5024809;28;20520;-76
2023/12/12 09:16:31;;;;;;;7.35;1.80;;;;;;;;;;5023859;28;20092;-74
2023/12/12 09:18:57;;;;;;;9.85;2.20;;;;;;;;;;5021679;28;20296;-77
2023/12/12 09:21:23;;;;;;;8.57;2.83;;;;;;;;;;5026911;28;20032;-76
2023/12/12 09:23:49;;;;;;;8.63;2.83;;;;;;;;;;5024776;28;20025;-77
2023/12/12 09:26:18;;;;;;;7.10;1.58;;;;;;;;;;5020383;28;20025;-74
2023/12/12 09:28:44;;;;;;;10.15;2.40;;;;;;;;;;5032077;28;20415;-74
2023/12/12 09:31:14;;;;;;;8.27;2.90;;;;;;;;;;5034555;28;20096;-77
2023/12/12 09:33:40;;;;;;;6.38;1.95;;;;;;;;;;5022986;28;20029;-73
2023/12/12 09:36:09;;;;;;;10.25;3.60;;;;;;;;;;5030145;28;20050;-74
2023/12/12 09:38:38;;;;;;;9.55;2.20;;;;;;;;;;5030937;28;20041;-75
2023/12/12 09:41:05;;;;;;;6.55;1.77;;;;;;;;;;5030233;28;20032;-74
2023/12/12 09:43:36;;;;;;;5.47;1.77;;;;;;;;;;5021689;28;20038;-72
2023/12/12 09:46:03;;;;;;;7.60;2.00;;;;;;;;;;5008705;28;20030;-73
2023/12/12 09:48:29;;;;;;;11.77;2.40;;;;;;;;;;5024728;28;20116;-73
2023/12/12 09:50:56;;;;;;;7.18;2.50;;;;;;;;;;5028169;28;20089;-72
2023/12/12 09:53:25;;;;;;;6.40;1.98;;;;;;;;;;5029600;28;20091;-73
2023/12/12 09:55:52;;;;;;;10.52;2.03;;;;;;;;;;5007246;28;20095;-73
2023/12/12 09:58:18;;;;;;;6.07;2.00;;;;;;;;;;5032731;28;20049;-73
2023/12/12 10:00:44;;;;;;;8.43;2.33;;;;;;;;;;5025324;28;20032;-71
2023/12/12 10:03:12;;;;;;;10.75;2.42;;;;;;;;;;5035634;28;20033;-73
2023/12/12 10:05:41;;;;;;;10.35;2.33;;;;;;;;;;5025009;28;20037;-73
2023/12/12 10:08:10;;;;;;;8.60;2.13;;;;;;;;;;5026458;28;20125;-72
2023/12/12 10:10:41;;;;;;;7.60;2.13;;;;;;;;;;5029855;28;20070;-71
2023/12/12 10:13:13;;;;;;;12.35;2.15;;;;;;;;;;5029505;28;20037;-73
2023/12/12 10:15:42;;;;;;;8.88;2.17;;;;;;;;;;5018548;28;20049;-76
2023/12/12 10:18:10;;;;;;;5.05;1.85;;;;;;;;;;5022217;28;20358;-73
2023/12/12 10:20:35;;;;;;;11.25;2.28;;;;;;;;;;5024591;28;20087;-71
2023/12/12 10:23:03;;;;;;;8.00;2.70;;;;;;;;;;5024356;28;20033;-71
2023/12/12 10:25:34;;;;;;;9.82;2.33;;;;;;;;;;5021795;28;20030;-73
2023/12/12 10:28:00;;;;;;;12.40;1.70;;;;;;;;;;5021821;28;20033;-70
2023/12/12 10:30:26;;;;;;;6.28;1.88;;;;;;;;;;5026019;28;20060;-73
2023/12/12 10:32:53;;;;;;;10.45;2.72;;;;;;;;;;5022206;28;20030;-72
2023/12/12 10:35:22;;;;;;;13.02;2.05;;;;;;;;;;5017256;28;20051;-72
2023/12/12 10:37:52;;;;;;;13.27;2.40;;;;;;;;;;5006751;28;20037;-75
2023/12/12 10:40:22;;;;;;;5.88;2.10;;;;;;;;;;5016019;28;20056;-71
2023/12/12 10:42:52;;;;;;;14.43;2.28;;;;;;;;;;5029412;28;20017;-72
2023/12/12 10:45:18;;;;;;;16.90;2.75;;;;;;;;;;5030965;28;20028;-73
2023/12/12 10:47:53;;;;;;;13.50;2.38;;;;;;;;;;5020515;28;20022;-75
2023/12/12 10:50:19;;;;;;;8.77;1.95;;;;;;;;;;5024226;28;20028;-74
2023/12/12 10:52:48;;;;;;;10.27;2.05;;;;;;;;;;5025196;28;20028;-75
2023/12/12 10:55:15;;;;;;;7.40;1.85;;;;;;;;;;5025818;28;20060;-72
2023/12/12 10:57:43;;;;;;;7.70;2.28;;;;;;;;;;5019689;28;20061;-73
2023/12/12 11:00:15;;;;;;;9.65;2.63;;;;;;;;;;5020641;28;20455;-73
2023/12/12 11:02:42;;;;;;;10.15;1.73;;;;;;;;;;5008067;28;20457;-74
2023/12/12 11:05:11;;;;;;;12.48;1.85;;;;;;;;;;5028359;28;20036;-73
2023/12/12 11:07:41;;;;;;;13.73;1.88;;;;;;;;;;5021350;28;20091;-72
2023/12/12 11:10:10;;;;;;;11.23;1.83;;;;;;;;;;5025919;28;20044;-73
2023/12/12 11:12:48;;;;;;;7.68;1.92;;;;;;;;;;5031248;28;20029;-72
2023/12/12 11:15:16;;;;;;;6.72;2.40;;;;;;;;;;5022828;28;20503;-73
2023/12/12 11:17:43;;;;;;;10.13;2.08;;;;;;;;;;5022569;28;20037;-73
2023/12/12 11:20:14;;;;;;;7.75;2.47;;;;;;;;;;5027861;28;20041;-76
2023/12/12 11:22:50;;;;;;;6.68;2.13;;;;;;;;;;5020601;28;20025;-72
2023/12/12 11:25:20;;;;;;;6.57;1.85;;;;;;;;;;5028381;28;20130;-74
2023/12/12 11:27:48;;;;;;;8.30;2.17;;;;;;;;;;5025231;28;20561;-73
2023/12/12 11:30:15;;;;;;;9.90;2.03;;;;;;;;;;5024847;28;20041;-70
2023/12/12 11:32:43;;;;;;;9.25;2.05;;;;;;;;;;5027180;28;20108;-71
2023/12/12 11:35:30;;;;;;;8.88;1.85;;;;;;;;;;5028889;28;20032;-73
2023/12/12 11:38:02;;;;;;;11.40;2.17;;;;;;;;;;5027950;28;20024;-74
2023/12/12 11:40:33;;;;;;;;;;;;;;;;;;5027812;28;20093;-73
2023/12/12 11:43:18;;;;;;;3.85;1.80;;;;;;;;;;5024416;28;19925;-72
2023/12/12 11:45:44;;;;;;;6.97;1.50;;;;;;;;;;5020227;28;20087;-69
2023/12/12 11:48:12;;;;;;;8.05;2.53;;;;;;;;;;5026821;28;20029;-72
2023/12/12 11:50:38;;;;;;;8.57;2.95;;;;;;;;;;5012170;28;20391;-73
2023/12/12 11:53:07;;;;;;;8.93;1.92;;;;;;;;;;5031870;28;20021;-74
2023/12/12 11:55:42;;;;;;;6.82;1.85;;;;;;;;;;5035082;28;20051;-75
2023/12/12 11:58:07;;;;;;;6.43;1.67;;;;;;;;;;5026389;28;20147;-72
2023/12/12 12:00:36;;;;;;;6.78;2.00;;;;;;;;;;5016287;28;20269;-74
2023/12/12 12:03:05;;;;;;;9.73;1.88;;;;;;;;;;5023615;28;20059;-72
2023/12/12 12:05:38;;;;;;;10.73;2.40;;;;;;;;;;5030171;28;20175;-76
2023/12/12 12:08:05;;;;;;;16.20;2.20;;;;;;;;;;5032118;28;20096;-72
2023/12/12 12:10:32;;;;;;;9.27;2.30;;;;;;;;;;5028756;28;20021;-72
2023/12/12 12:12:59;;;;;;;7.28;1.95;;;;;;;;;;5046534;28;20174;-73
2023/12/12 12:15:31;;;;;;;8.52;2.30;;;;;;;;;;5030348;28;20033;-73
2023/12/12 12:17:57;;;;;;;10.80;1.42;;;;;;;;;;5027151;28;20026;-71
2023/12/12 12:20:23;;;;;;;13.48;2.08;;;;;;;;;;5021999;28;20033;-73
2023/12/12 12:22:49;;;;;;;15.60;4.28;;;;;;;;;;5029319;28;20047;-72
2023/12/12 12:25:23;;;;;;;8.90;1.80;;;;;;;;;;5029408;28;20065;-72
2023/12/12 12:28:06;;;;;;;3.38;1.80;;;;;;;;;;5014052;28;20096;-72
2023/12/12 12:31:04;;;;;;;;;;;;;;;;;;;;;
2023/12/12 12:33:36;;;;;;;10.52;1.98;;;;;;;;;;5038928;28;20021;-75
2023/12/12 12:36:05;;;;;;;12.75;2.70;;;;;;;;;;5032025;28;20022;-71
2023/12/12 12:38:31;;;;;;;6.15;3.30;;;;;;;;;;5037266;28;20044;-74
2023/12/12 12:40:58;;;;;;;5.78;2.22;;;;;;;;;;5030396;28;20065;-74
2023/12/12 12:43:25;;;;;;;10.75;2.63;;;;;;;;;;5030635;28;20551;-69
2023/12/12 12:45:56;;;;;;;11.18;2.00;;;;;;;;;;5027449;28;20401;-76
2023/12/12 12:48:23;;;;;;;5.57;2.22;;;;;;;;;;5039784;28;20020;-74
2023/12/12 12:50:49;;;;;;;10.85;2.40;;;;;;;;;;5025587;28;20029;-76
2023/12/12 12:53:17;;;;;;;8.32;2.67;;;;;;;;;;5027731;28;20060;-73
2023/12/12 12:55:43;;;;;;;6.65;2.47;;;;;;;;;;5020123;28;20137;-76
2023/12/12 12:58:12;;;;;;;12.70;2.17;;;;;;;;;;5026475;28;20529;-74
2023/12/12 13:00:40;;;;;;;8.55;2.08;;;;;;;;;;5022825;28;20044;-71
2023/12/12 13:03:06;;;;;;;11.48;2.38;;;;;;;;;;5034941;28;20040;-72
2023/12/12 13:05:38;;;;;;;9.23;2.10;;;;;;;;;;5030448;28;20029;-75
2023/12/12 13:08:04;;;;;;;10.02;2.95;;;;;;;;;;5048772;28;20083;-71
2023/12/12 13:10:31;;;;;;;10.70;2.83;;;;;;;;;;5026994;28;20033;-74
2023/12/12 13:13:12;;;;;;;10.68;2.58;;;;;;;;;;5028896;28;20029;-72
2023/12/12 13:16:00;;;;;;;9.52;2.20;;;;;;;;;;5021443;28;20054;-73
2023/12/12 13:18:25;;;;;;;10.02;2.25;;;;;;;;;;5022967;28;20094;-73
2023/12/12 13:20:52;;;;;;;10.52;2.38;;;;;;;;;;5025084;28;20041;-74
2023/12/12 13:23:18;;;;;;;6.38;1.85;;;;;;;;;;5017265;28;20049;-73
2023/12/12 13:25:48;;;;;;;11.73;2.50;;;;;;;;;;5020602;28;20071;-71
2023/12/12 13:28:14;;;;;;;13.77;2.55;;;;;;;;;;5021716;28;20037;-73
2023/12/12 13:30:41;;;;;;;19.15;3.70;;;;;;;;;;5034803;28;20033;-74
2023/12/12 13:33:12;;;;;;;7.65;2.67;;;;;;;;;;5034508;28;20029;-73
2023/12/12 13:35:39;;;;;;;28.03;6.10;;;;;;;;;;5025452;28;20037;-72
2023/12/12 13:38:04;;;;;;;11.07;3.05;;;;;;;;;;5025865;28;20695;-71
2023/12/12 13:40:31;;;;;;;16.83;4.15;;;;;;;;;;5032120;28;20036;-71
2023/12/12 13:42:57;;;;;;;14.70;2.80;;;;;;;;;;5025323;28;20044;-75
2023/12/12 13:45:24;;;;;;;6.35;2.38;;;;;;;;;;5019978;28;20029;-72
2023/12/12 13:47:52;;;;;;;22.88;6.60;;;;;;;;;;5025030;28;20041;-72
2023/12/12 13:50:22;;;;;;;11.88;3.88;;;;;;;;;;5019037;28;20037;-70
2023/12/12 13:52:48;;;;;;;19.92;3.38;;;;;;;;;;5030347;28;20026;-70
2023/12/12 13:55:17;;;;;;;22.10;5.60;;;;;;;;;;5017027;28;20033;-73
2023/12/12 13:57:44;;;;;;;14.70;2.67;;;;;;;;;;5016161;28;20067;-72
2023/12/12 14:00:10;;;;;;;45.80;13.23;;;;;;;;;;5005862;28;20038;-73
2023/12/12 14:02:37;;;;;;;31.23;8.65;;;;;;;;;;5031826;28;20473;-73
2023/12/12 14:05:03;;;;;;;38.13;13.98;;;;;;;;;;5033285;28;20039;-71
2023/12/12 14:07:31;;;;;;;14.45;3.63;;;;;;;;;;5005977;28;20095;-73
2023/12/12 14:09:57;;;;;;;6.65;2.53;;;;;;;;;;5030688;28;20036;-71
2023/12/12 14:12:23;;;;;;;29.85;5.20;;;;;;;;;;5008016;28;20408;-71
2023/12/12 14:14:50;;;;;;;12.98;3.25;;;;;;;;;;5003671;28;20075;-70
2023/12/12 14:17:15;;;;;;;26.05;5.10;;;;;;;;;;5032776;28;20052;-73
2023/12/12 14:19:41;;;;;;;18.02;2.67;;;;;;;;;;5036856;28;20037;-74
2023/12/12 14:22:09;;;;;;;29.83;5.22;;;;;;;;;;5016605;28;20658;-70
2023/12/12 14:24:35;;;;;;;16.20;3.97;;;;;;;;;;5009323;28;20034;-74
2023/12/12 14:27:01;;;;;;;18.75;5.72;;;;;;;;;;4993377;28;20428;-75
2023/12/12 14:29:28;;;;;;;33.83;5.45;;;;;;;;;;5017502;28;20037;-74
2023/12/12 14:31:53;;;;;;;15.00;3.80;;;;;;;;;;5024871;28;20084;-73
2023/12/12 14:34:19;;;;;;;17.02;3.80;;;;;;;;;;5027707;28;20484;-74
2023/12/12 14:36:46;;;;;;;19.88;7.47;;;;;;;;;;5006435;28;20645;-73
2023/12/12 14:39:13;;;;;;;14.18;3.53;;;;;;;;;;5024421;28;20041;-73
2023/12/12 14:41:40;;;;;;;32.53;6.68;;;;;;;;;;5027005;28;20071;-72